Aviation Digital Data Service (ADDS)

Output produced by METARs form (0050 UTC 20 April 2019)
found at http://www.aviationweather.gov/metar/data/
 
METAR text: PACD 192353Z 28013KT 10SM FEW026 SCT033 BKN048 04/M02 A2981 RMK AO2 SLP096 60000 T00391022 10044 20006 58004
Conditions at: PACD (COLD BAY , AK, US) observed 2353 UTC 19 April 2019
Temperature: 3.9°C (39°F)
Dewpoint: -2.2°C (28°F) [RH = 64%]
Pressure (altimeter): 29.81 inches Hg (1009.6 mb)
[Sea-level pressure: 1009.6 mb]
Winds: from the W (280 degrees) at 15 MPH (13 knots; 6.7 m/s)
Visibility: 10 or more miles (16+ km)
Ceiling: 4800 feet AGL
Clouds: few clouds at 2600 feet AGL
scattered clouds at 3300 feet AGL
broken clouds at 4800 feet AGL
Weather: no significant weather observed at this time

METAR text: PACD 192253Z 32012KT 10SM FEW025 FEW033 BKN055 04/M02 A2981 RMK AO2 SLP097 T00391022
Conditions at: PACD (COLD BAY , AK, US) observed 2253 UTC 19 April 2019
Temperature: 3.9°C (39°F)
Dewpoint: -2.2°C (28°F) [RH = 64%]
Pressure (altimeter): 29.81 inches Hg (1009.6 mb)
[Sea-level pressure: 1009.7 mb]
Winds: from the NW (320 degrees) at 14 MPH (12 knots; 6.2 m/s)
Visibility: 10 or more miles (16+ km)
Ceiling: 5500 feet AGL
Clouds: few clouds at 2500 feet AGL
few clouds at 3300 feet AGL
broken clouds at 5500 feet AGL
Weather: no significant weather observed at this time

METAR text: PACD 192153Z 28009KT 10SM FEW018 FEW041 OVC049 03/M02 A2982 RMK AO2 UPB34E44 SLP100 P0000 T00281022
Conditions at: PACD (COLD BAY , AK, US) observed 2153 UTC 19 April 2019
Temperature: 2.8°C (37°F)
Dewpoint: -2.2°C (28°F) [RH = 70%]
Pressure (altimeter): 29.82 inches Hg (1009.9 mb)
[Sea-level pressure: 1010.0 mb]
Winds: from the W (280 degrees) at 10 MPH (9 knots; 4.6 m/s)
Visibility: 10 or more miles (16+ km)
Ceiling: 4900 feet AGL
Clouds: few clouds at 1800 feet AGL
few clouds at 4100 feet AGL
overcast cloud deck at 4900 feet AGL
Weather: no significant weather observed at this time

METAR text: PACD 192104Z 30004KT 10SM BKN024 OVC045 02/M03 A2982 RMK AO2 T00171028
Conditions at: PACD (COLD BAY , AK, US) observed 2104 UTC 19 April 2019
Temperature: 1.7°C (35°F)
Dewpoint: -2.8°C (27°F) [RH = 72%]
Pressure (altimeter): 29.82 inches Hg (1009.9 mb)
Winds: from the WNW (300 degrees) at 5 MPH (4 knots; 2.1 m/s)
Visibility: 10 or more miles (16+ km)
Ceiling: 2400 feet AGL
Clouds: broken clouds at 2400 feet AGL
overcast cloud deck at 4500 feet AGL
Weather: no significant weather observed at this time

METAR text: PACD 192053Z 31004KT 10SM SCT023 SCT032 OVC047 02/M03 A2982 RMK AO2 SLP100 T00171028 50001
Conditions at: PACD (COLD BAY , AK, US) observed 2053 UTC 19 April 2019
Temperature: 1.7°C (35°F)
Dewpoint: -2.8°C (27°F) [RH = 72%]
Pressure (altimeter): 29.82 inches Hg (1009.9 mb)
[Sea-level pressure: 1010.0 mb]
Winds: from the NW (310 degrees) at 5 MPH (4 knots; 2.1 m/s)
Visibility: 10 or more miles (16+ km)
Ceiling: 4700 feet AGL
Clouds: scattered clouds at 2300 feet AGL
scattered clouds at 3200 feet AGL
overcast cloud deck at 4700 feet AGL
Weather: no significant weather observed at this time

METAR text: PACD 192049Z 31007KT 10SM SCT023 BKN029 OVC047 02/M03 A2982 RMK AO2
Conditions at: PACD (COLD BAY , AK, US) observed 2049 UTC 19 April 2019
Temperature: 2.0°C (36°F)
Dewpoint: -3.0°C (27°F) [RH = 69%]
Pressure (altimeter): 29.82 inches Hg (1009.9 mb)
Winds: from the NW (310 degrees) at 8 MPH (7 knots; 3.6 m/s)
Visibility: 10 or more miles (16+ km)
Ceiling: 2900 feet AGL
Clouds: scattered clouds at 2300 feet AGL
broken clouds at 2900 feet AGL
overcast cloud deck at 4700 feet AGL
Weather: no significant weather observed at this time

METAR text: PACD 191953Z 33008KT 10SM FEW040 SCT049 02/M03 A2982 RMK AO2 SLP098 T00221028
Conditions at: PACD (COLD BAY , AK, US) observed 1953 UTC 19 April 2019
Temperature: 2.2°C (36°F)
Dewpoint: -2.8°C (27°F) [RH = 69%]
Pressure (altimeter): 29.82 inches Hg (1009.9 mb)
[Sea-level pressure: 1009.8 mb]
Winds: from the NNW (330 degrees) at 9 MPH (8 knots; 4.1 m/s)
Visibility: 10 or more miles (16+ km)
Ceiling: at least 12,000 feet AGL
Clouds: few clouds at 4000 feet AGL
scattered clouds at 4900 feet AGL
Weather: no significant weather observed at this time

METAR text: PACD 191930Z 33011KT 10SM FEW022 BKN036 BKN045 01/M02 A2982 RMK AO2 T00061022
Conditions at: PACD (COLD BAY , AK, US) observed 1930 UTC 19 April 2019
Temperature: 0.6°C (33°F)
Dewpoint: -2.2°C (28°F) [RH = 81%]
Pressure (altimeter): 29.82 inches Hg (1009.9 mb)
Winds: from the NNW (330 degrees) at 13 MPH (11 knots; 5.7 m/s)
Visibility: 10 or more miles (16+ km)
Ceiling: 3600 feet AGL
Clouds: few clouds at 2200 feet AGL
broken clouds at 3600 feet AGL
broken clouds at 4500 feet AGL
Weather: no significant weather observed at this time

METAR text: PACD 191908Z 26008KT 10SM BKN023 OVC046 02/M03 A2981 RMK AO2 T00171033
Conditions at: PACD (COLD BAY , AK, US) observed 1908 UTC 19 April 2019
Temperature: 1.7°C (35°F)
Dewpoint: -3.3°C (26°F) [RH = 69%]
Pressure (altimeter): 29.81 inches Hg (1009.6 mb)
Winds: from the W (260 degrees) at 9 MPH (8 knots; 4.1 m/s)
Visibility: 10 or more miles (16+ km)
Ceiling: 2300 feet AGL
Clouds: broken clouds at 2300 feet AGL
overcast cloud deck at 4600 feet AGL
Weather: no significant weather observed at this time

METAR text: PACD 191853Z 32007KT 10SM FEW025 BKN046 02/M03 A2982 RMK AO2 SLP098 T00171033
Conditions at: PACD (COLD BAY , AK, US) observed 1853 UTC 19 April 2019
Temperature: 1.7°C (35°F)
Dewpoint: -3.3°C (26°F) [RH = 69%]
Pressure (altimeter): 29.82 inches Hg (1009.9 mb)
[Sea-level pressure: 1009.8 mb]
Winds: from the NW (320 degrees) at 8 MPH (7 knots; 3.6 m/s)
Visibility: 10 or more miles (16+ km)
Ceiling: 4600 feet AGL
Clouds: few clouds at 2500 feet AGL
broken clouds at 4600 feet AGL
Weather: no significant weather observed at this time

METAR text: PACD 191753Z 35004KT 10SM OVC044 01/M03 A2982 RMK AO2 SLP099 T00111028 10011 21011 52005
Conditions at: PACD (COLD BAY , AK, US) observed 1753 UTC 19 April 2019
Temperature: 1.1°C (34°F)
Dewpoint: -2.8°C (27°F) [RH = 75%]
Pressure (altimeter): 29.82 inches Hg (1009.9 mb)
[Sea-level pressure: 1009.9 mb]
Winds: from the N (350 degrees) at 5 MPH (4 knots; 2.1 m/s)
Visibility: 10 or more miles (16+ km)
Ceiling: 4400 feet AGL
Clouds: overcast cloud deck at 4400 feet AGL
Weather: no significant weather observed at this time

METAR text: PACD 191653Z 27004KT 10SM BKN037 OVC044 00/M03 A2982 RMK AO2 SLP098 T00001033
Conditions at: PACD (COLD BAY , AK, US) observed 1653 UTC 19 April 2019
Temperature: 0.0°C (32°F)
Dewpoint: -3.3°C (26°F) [RH = 78%]
Pressure (altimeter): 29.82 inches Hg (1009.9 mb)
[Sea-level pressure: 1009.8 mb]
Winds: from the W (270 degrees) at 5 MPH (4 knots; 2.1 m/s)
Visibility: 10 or more miles (16+ km)
Ceiling: 3700 feet AGL
Clouds: broken clouds at 3700 feet AGL
overcast cloud deck at 4400 feet AGL
Weather: no significant weather observed at this time

METAR text: PACD 191553Z 30005KT 10SM SCT033 BKN043 OVC050 M01/M04 A2981 RMK AO2 SLP095 T10061039
Conditions at: PACD (COLD BAY , AK, US) observed 1553 UTC 19 April 2019
Temperature: -0.6°C (31°F)
Dewpoint: -3.9°C (25°F) [RH = 78%]
Pressure (altimeter): 29.81 inches Hg (1009.6 mb)
[Sea-level pressure: 1009.5 mb]
Winds: from the WNW (300 degrees) at 6 MPH (5 knots; 2.6 m/s)
Visibility: 10 or more miles (16+ km)
Ceiling: 4300 feet AGL
Clouds: scattered clouds at 3300 feet AGL
broken clouds at 4300 feet AGL
overcast cloud deck at 5000 feet AGL
Weather: no significant weather observed at this time

METAR text: PACD 191453Z AUTO 32013KT 10SM OVC043 00/M04 A2981 RMK AO2 SLP094 T00001039 55000 TSNO
Conditions at: PACD (COLD BAY , AK, US) observed 1453 UTC 19 April 2019
Temperature: 0.0°C (32°F)
Dewpoint: -3.9°C (25°F) [RH = 75%]
Pressure (altimeter): 29.81 inches Hg (1009.6 mb)
[Sea-level pressure: 1009.4 mb]
Winds: from the NW (320 degrees) at 15 MPH (13 knots; 6.7 m/s)
Visibility: 10 or more miles (16+ km)
Ceiling: 4300 feet AGL
Clouds: overcast cloud deck at 4300 feet AGL
Weather: automated observation with no human augmentation;
there may or may not be significant weather present at this time

METAR text: PACD 191353Z AUTO 31010KT 10SM OVC038 00/M04 A2980 RMK AO2 SLP093 T00001044 TSNO
Conditions at: PACD (COLD BAY , AK, US) observed 1353 UTC 19 April 2019
Temperature: 0.0°C (32°F)
Dewpoint: -4.4°C (24°F) [RH = 72%]
Pressure (altimeter): 29.80 inches Hg (1009.2 mb)
[Sea-level pressure: 1009.3 mb]
Winds: from the NW (310 degrees) at 12 MPH (10 knots; 5.1 m/s)
Visibility: 10 or more miles (16+ km)
Ceiling: 3800 feet AGL
Clouds: overcast cloud deck at 3800 feet AGL
Weather: automated observation with no human augmentation;
there may or may not be significant weather present at this time

METAR text: PACD 191253Z AUTO 24005KT 10SM OVC037 M01/M03 A2980 RMK AO2 SLP093 T10061033 TSNO
Conditions at: PACD (COLD BAY , AK, US) observed 1253 UTC 19 April 2019
Temperature: -0.6°C (31°F)
Dewpoint: -3.3°C (26°F) [RH = 82%]
Pressure (altimeter): 29.80 inches Hg (1009.2 mb)
[Sea-level pressure: 1009.3 mb]
Winds: from the WSW (240 degrees) at 6 MPH (5 knots; 2.6 m/s)
Visibility: 10 or more miles (16+ km)
Ceiling: 3700 feet AGL
Clouds: overcast cloud deck at 3700 feet AGL
Weather: automated observation with no human augmentation;
there may or may not be significant weather present at this time

METAR text: PACD 191153Z AUTO 25006KT 10SM OVC045 M01/M03 A2981 RMK AO2 SNB10E36 SLP095 P0001 60001 70030 T10061033 10006 21006 50003 TSNO
Conditions at: PACD (COLD BAY , AK, US) observed 1153 UTC 19 April 2019
Temperature: -0.6°C (31°F)
Dewpoint: -3.3°C (26°F) [RH = 82%]
Pressure (altimeter): 29.81 inches Hg (1009.6 mb)
[Sea-level pressure: 1009.5 mb]
Winds: from the WSW (250 degrees) at 7 MPH (6 knots; 3.1 m/s)
Visibility: 10 or more miles (16+ km)
Ceiling: 4500 feet AGL
Clouds: overcast cloud deck at 4500 feet AGL
Weather: automated observation with no human augmentation;
there may or may not be significant weather present at this time

METAR text: PACD 191053Z AUTO 29007KT 10SM OVC048 00/M04 A2981 RMK AO2 SLP097 T00001039 TSNO
Conditions at: PACD (COLD BAY , AK, US) observed 1053 UTC 19 April 2019
Temperature: 0.0°C (32°F)
Dewpoint: -3.9°C (25°F) [RH = 75%]
Pressure (altimeter): 29.81 inches Hg (1009.6 mb)
[Sea-level pressure: 1009.7 mb]
Winds: from the WNW (290 degrees) at 8 MPH (7 knots; 3.6 m/s)
Visibility: 10 or more miles (16+ km)
Ceiling: 4800 feet AGL
Clouds: overcast cloud deck at 4800 feet AGL
Weather: automated observation with no human augmentation;
there may or may not be significant weather present at this time

METAR text: PACD 190953Z AUTO 30009KT 10SM OVC050 00/M06 A2980 RMK AO2 SLP093 T00001056 TSNO
Conditions at: PACD (COLD BAY , AK, US) observed 0953 UTC 19 April 2019
Temperature: 0.0°C (32°F)
Dewpoint: -5.6°C (22°F) [RH = 66%]
Pressure (altimeter): 29.80 inches Hg (1009.2 mb)
[Sea-level pressure: 1009.3 mb]
Winds: from the WNW (300 degrees) at 10 MPH (9 knots; 4.6 m/s)
Visibility: 10 or more miles (16+ km)
Ceiling: 5000 feet AGL
Clouds: overcast cloud deck at 5000 feet AGL
Weather: automated observation with no human augmentation;
there may or may not be significant weather present at this time

METAR text: PACD 190853Z AUTO 32009KT 10SM OVC046 00/M05 A2980 RMK AO2 SLP092 60000 T00001050 400441006 51014 TSNO
Conditions at: PACD (COLD BAY , AK, US) observed 0853 UTC 19 April 2019
Temperature: 0.0°C (32°F)
Dewpoint: -5.0°C (23°F) [RH = 69%]
Pressure (altimeter): 29.80 inches Hg (1009.2 mb)
[Sea-level pressure: 1009.2 mb]
Winds: from the NW (320 degrees) at 10 MPH (9 knots; 4.6 m/s)
Visibility: 10 or more miles (16+ km)
Ceiling: 4600 feet AGL
Clouds: overcast cloud deck at 4600 feet AGL
Weather: automated observation with no human augmentation;
there may or may not be significant weather present at this time

METAR text: PACD 190753Z AUTO 32010KT 10SM OVC032 01/M04 A2979 RMK AO2 UPB09E27 SLP090 P0000 T00061039 TSNO
Conditions at: PACD (COLD BAY , AK, US) observed 0753 UTC 19 April 2019
Temperature: 0.6°C (33°F)
Dewpoint: -3.9°C (25°F) [RH = 72%]
Pressure (altimeter): 29.79 inches Hg (1008.9 mb)
[Sea-level pressure: 1009.0 mb]
Winds: from the NW (320 degrees) at 12 MPH (10 knots; 5.1 m/s)
Visibility: 10 or more miles (16+ km)
Ceiling: 3200 feet AGL
Clouds: overcast cloud deck at 3200 feet AGL
Weather: automated observation with no human augmentation;
there may or may not be significant weather present at this time

METAR text: PACD 190653Z AUTO 32007KT 10SM FEW022 BKN042 OVC049 01/M03 A2978 RMK AO2 SNB21E43 SLP086 P0000 T00061028 TSNO
Conditions at: PACD (COLD BAY , AK, US) observed 0653 UTC 19 April 2019
Temperature: 0.6°C (33°F)
Dewpoint: -2.8°C (27°F) [RH = 78%]
Pressure (altimeter): 29.78 inches Hg (1008.5 mb)
[Sea-level pressure: 1008.6 mb]
Winds: from the NW (320 degrees) at 8 MPH (7 knots; 3.6 m/s)
Visibility: 10 or more miles (16+ km)
Ceiling: 4200 feet AGL
Clouds: few clouds at 2200 feet AGL
broken clouds at 4200 feet AGL
overcast cloud deck at 4900 feet AGL
Weather: automated observation with no human augmentation;
there may or may not be significant weather present at this time

METAR text: PACD 190553Z AUTO 32012KT 10SM FEW030 BKN038 OVC047 01/M03 A2976 RMK AO2 SNE14 SLP078 P0000 60002 T00061033 10044 20000 51012 TSNO
Conditions at: PACD (COLD BAY , AK, US) observed 0553 UTC 19 April 2019
Temperature: 0.6°C (33°F)
Dewpoint: -3.3°C (26°F) [RH = 75%]
Pressure (altimeter): 29.76 inches Hg (1007.9 mb)
[Sea-level pressure: 1007.8 mb]
Winds: from the NW (320 degrees) at 14 MPH (12 knots; 6.2 m/s)
Visibility: 10 or more miles (16+ km)
Ceiling: 3800 feet AGL
Clouds: few clouds at 3000 feet AGL
broken clouds at 3800 feet AGL
overcast cloud deck at 4700 feet AGL
Weather: automated observation with no human augmentation;
there may or may not be significant weather present at this time

METAR text: PACD 190537Z AUTO 33011KT 10SM SCT025 BKN031 OVC046 01/M03 A2975 RMK AO2 SNE14 P0000 T00061028 TSNO
Conditions at: PACD (COLD BAY , AK, US) observed 0537 UTC 19 April 2019
Temperature: 0.6°C (33°F)
Dewpoint: -2.8°C (27°F) [RH = 78%]
Pressure (altimeter): 29.75 inches Hg (1007.5 mb)
Winds: from the NNW (330 degrees) at 13 MPH (11 knots; 5.7 m/s)
Visibility: 10 or more miles (16+ km)
Ceiling: 3100 feet AGL
Clouds: scattered clouds at 2500 feet AGL
broken clouds at 3100 feet AGL
overcast cloud deck at 4600 feet AGL
Weather: automated observation with no human augmentation;
there may or may not be significant weather present at this time

METAR text: PACD 190457Z AUTO 31010KT 3SM -SN BR BKN015 BKN024 OVC033 00/M01 A2975 RMK AO2 P0000 T00001011 TSNO
Conditions at: PACD (COLD BAY , AK, US) observed 0457 UTC 19 April 2019
Temperature: 0.0°C (32°F)
Dewpoint: -1.1°C (30°F) [RH = 92%]
Pressure (altimeter): 29.75 inches Hg (1007.5 mb)
Winds: from the NW (310 degrees) at 12 MPH (10 knots; 5.1 m/s)
Visibility: 3 miles ( 5 km)
Ceiling: 1500 feet AGL
Clouds: broken clouds at 1500 feet AGL
broken clouds at 2400 feet AGL
overcast cloud deck at 3300 feet AGL
Weather: -SN BR  (light snow, mist)

METAR text: PACD 190453Z AUTO 32006KT 1 1/4SM -SN BR BKN015 OVC024 00/M01 A2975 RMK AO2 UPE0357SNB28 SLP074 P0002 T00001011 TSNO
Conditions at: PACD (COLD BAY , AK, US) observed 0453 UTC 19 April 2019
Temperature: 0.0°C (32°F)
Dewpoint: -1.1°C (30°F) [RH = 92%]
Pressure (altimeter): 29.75 inches Hg (1007.5 mb)
[Sea-level pressure: 1007.4 mb]
Winds: from the NW (320 degrees) at 7 MPH (6 knots; 3.1 m/s)
Visibility: 1.25 miles (2.01 km)
Ceiling: 1500 feet AGL
Clouds: broken clouds at 1500 feet AGL
overcast cloud deck at 2400 feet AGL
Weather: -SN BR  (light snow, mist)

METAR text: PACD 190439Z AUTO 32011KT 3/4SM -SN BR BKN014 BKN022 OVC033 00/M02 A2975 RMK AO2 UPE0357SNB28 P0000 T00001022 TSNO
Conditions at: PACD (COLD BAY , AK, US) observed 0439 UTC 19 April 2019
Temperature: 0.0°C (32°F)
Dewpoint: -2.2°C (28°F) [RH = 85%]
Pressure (altimeter): 29.75 inches Hg (1007.5 mb)
Winds: from the NW (320 degrees) at 13 MPH (11 knots; 5.7 m/s)
Visibility: 0.75 miles (1.21 km)
Ceiling: 1400 feet AGL
Clouds: broken clouds at 1400 feet AGL
broken clouds at 2200 feet AGL
overcast cloud deck at 3300 feet AGL
Weather: -SN BR  (light snow, mist)

METAR text: PACD 190433Z AUTO 32017G22KT 1 1/2SM -SN SCT018 BKN022 OVC033 01/M02 A2974 RMK AO2 UPE0357SNB28 P0000 T00061022 TSNO
Conditions at: PACD (COLD BAY , AK, US) observed 0433 UTC 19 April 2019
Temperature: 0.6°C (33°F)
Dewpoint: -2.2°C (28°F) [RH = 81%]
Pressure (altimeter): 29.74 inches Hg (1007.2 mb)
Winds: from the NW (320 degrees) at 20 MPH (17 knots; 8.7 m/s)
gusting to 25 MPH (22 knots; 11.3 m/s)
Visibility: 1.50 miles (2.41 km)
Ceiling: 2200 feet AGL
Clouds: scattered clouds at 1800 feet AGL
broken clouds at 2200 feet AGL
overcast cloud deck at 3300 feet AGL
Weather: -SN  (light snow)

METAR text: PACD 190431Z AUTO 33017G22KT 2 1/2SM -SN SCT022 BKN033 OVC046 01/M02 A2974 RMK AO2 UPE0357SNB28 P0000 T00061022 TSNO
Conditions at: PACD (COLD BAY , AK, US) observed 0431 UTC 19 April 2019
Temperature: 0.6°C (33°F)
Dewpoint: -2.2°C (28°F) [RH = 81%]
Pressure (altimeter): 29.74 inches Hg (1007.2 mb)
Winds: from the NNW (330 degrees) at 20 MPH (17 knots; 8.7 m/s)
gusting to 25 MPH (22 knots; 11.3 m/s)
Visibility: 2.50 miles (4.02 km)
Ceiling: 3300 feet AGL
Clouds: scattered clouds at 2200 feet AGL
broken clouds at 3300 feet AGL
overcast cloud deck at 4600 feet AGL
Weather: -SN  (light snow)

METAR text: PACD 190428Z AUTO 33017G22KT 5SM -SN SCT022 BKN028 OVC046 01/M02 A2974 RMK AO2 UPE0357SNB28 P0000 T00111022 TSNO
Conditions at: PACD (COLD BAY , AK, US) observed 0428 UTC 19 April 2019
Temperature: 1.1°C (34°F)
Dewpoint: -2.2°C (28°F) [RH = 79%]
Pressure (altimeter): 29.74 inches Hg (1007.2 mb)
Winds: from the NNW (330 degrees) at 20 MPH (17 knots; 8.7 m/s)
gusting to 25 MPH (22 knots; 11.3 m/s)
Visibility: 5 miles ( 8 km)
Ceiling: 2800 feet AGL
Clouds: scattered clouds at 2200 feet AGL
broken clouds at 2800 feet AGL
overcast cloud deck at 4600 feet AGL
Weather: -SN  (light snow)

METAR text: PACD 190353Z AUTO 32013KT 10SM UP FEW023 BKN030 OVC036 02/M02 A2974 RMK AO2 UPB48 SLP070 P0000 T00221017 TSNO
Conditions at: PACD (COLD BAY , AK, US) observed 0353 UTC 19 April 2019
Temperature: 2.2°C (36°F)
Dewpoint: -1.7°C (29°F) [RH = 75%]
Pressure (altimeter): 29.74 inches Hg (1007.2 mb)
[Sea-level pressure: 1007.0 mb]
Winds: from the NW (320 degrees) at 15 MPH (13 knots; 6.7 m/s)
Visibility: 10 or more miles (16+ km)
Ceiling: 3000 feet AGL
Clouds: few clouds at 2300 feet AGL
broken clouds at 3000 feet AGL
overcast cloud deck at 3600 feet AGL
Weather: UP  (unknown precipitation)

METAR text: PACD 190253Z AUTO 33016KT 10SM FEW010 FEW014 OVC039 03/00 A2972 RMK AO2 PK WND 31026/0221 UPB34E45SNB09E21B33E34 SLP065 P0000 60000 T00280000 53008 TSNO
Conditions at: PACD (COLD BAY , AK, US) observed 0253 UTC 19 April 2019
Temperature: 2.8°C (37°F)
Dewpoint: 0.0°C (32°F) [RH = 82%]
Pressure (altimeter): 29.72 inches Hg (1006.5 mb)
[Sea-level pressure: 1006.5 mb]
Winds: from the NNW (330 degrees) at 18 MPH (16 knots; 8.2 m/s)
Visibility: 10 or more miles (16+ km)
Ceiling: 3900 feet AGL
Clouds: few clouds at 1000 feet AGL
few clouds at 1400 feet AGL
overcast cloud deck at 3900 feet AGL
Weather: automated observation with no human augmentation;
there may or may not be significant weather present at this time

METAR text: PACD 190248Z AUTO 32016KT 10SM SCT010 SCT014 OVC037 03/01 A2972 RMK AO2 PK WND 31026/0221 UPB34E45SNB09E21B33E34 P0000 TSNO
Conditions at: PACD (COLD BAY , AK, US) observed 0248 UTC 19 April 2019
Temperature: 3.0°C (37°F)
Dewpoint: 1.0°C (34°F) [RH = 87%]
Pressure (altimeter): 29.72 inches Hg (1006.5 mb)
Winds: from the NW (320 degrees) at 18 MPH (16 knots; 8.2 m/s)
Visibility: 10 or more miles (16+ km)
Ceiling: 3700 feet AGL
Clouds: scattered clouds at 1000 feet AGL
scattered clouds at 1400 feet AGL
overcast cloud deck at 3700 feet AGL
Weather: automated observation with no human augmentation;
there may or may not be significant weather present at this time

METAR text: PACD 190224Z AUTO 31021KT 9SM SCT010 BKN020 BKN026 03/01 A2971 RMK AO2 PK WND 31026/0221 SNB09E21 P0000 T00280006 TSNO
Conditions at: PACD (COLD BAY , AK, US) observed 0224 UTC 19 April 2019
Temperature: 2.8°C (37°F)
Dewpoint: 0.6°C (33°F) [RH = 85%]
Pressure (altimeter): 29.71 inches Hg (1006.2 mb)
Winds: from the NW (310 degrees) at 24 MPH (21 knots; 10.8 m/s)
Visibility: 9 miles (14 km)
Ceiling: 2000 feet AGL
Clouds: scattered clouds at 1000 feet AGL
broken clouds at 2000 feet AGL
broken clouds at 2600 feet AGL
Weather: automated observation with no human augmentation;
there may or may not be significant weather present at this time

METAR text: PACD 190211Z AUTO 28012G26KT 2 1/2SM -SN SCT016 BKN024 02/M01 A2971 RMK AO2 PK WND 29026/0207 SNB09 P0000 T00221011 TSNO
Conditions at: PACD (COLD BAY , AK, US) observed 0211 UTC 19 April 2019
Temperature: 2.2°C (36°F)
Dewpoint: -1.1°C (30°F) [RH = 79%]
Pressure (altimeter): 29.71 inches Hg (1006.2 mb)
Winds: from the W (280 degrees) at 14 MPH (12 knots; 6.2 m/s)
gusting to 30 MPH (26 knots; 13.4 m/s)
Visibility: 2.50 miles (4.02 km)
Ceiling: 2400 feet AGL
Clouds: scattered clouds at 1600 feet AGL
broken clouds at 2400 feet AGL
Weather: -SN  (light snow)

METAR text: PACD 190153Z AUTO 26015KT 10SM SCT024 SCT031 04/M01 A2970 RMK AO2 SLP058 T00441006 TSNO
Conditions at: PACD (COLD BAY , AK, US) observed 0153 UTC 19 April 2019
Temperature: 4.4°C (40°F)
Dewpoint: -0.6°C (31°F) [RH = 70%]
Pressure (altimeter): 29.70 inches Hg (1005.8 mb)
[Sea-level pressure: 1005.8 mb]
Winds: from the W (260 degrees) at 17 MPH (15 knots; 7.7 m/s)
Visibility: 10 or more miles (16+ km)
Ceiling: at least 12,000 feet AGL
Clouds: scattered clouds at 2400 feet AGL
scattered clouds at 3100 feet AGL
Weather: automated observation with no human augmentation;
there may or may not be significant weather present at this time

METAR text: PACD 190053Z AUTO 27014KT 9SM FEW024 BKN060 03/M01 A2970 RMK AO2 SNB42E51 SLP057 P0000 T00331006 TSNO
Conditions at: PACD (COLD BAY , AK, US) observed 0053 UTC 19 April 2019
Temperature: 3.3°C (38°F)
Dewpoint: -0.6°C (31°F) [RH = 76%]
Pressure (altimeter): 29.70 inches Hg (1005.8 mb)
[Sea-level pressure: 1005.7 mb]
Winds: from the W (270 degrees) at 16 MPH (14 knots; 7.2 m/s)
Visibility: 9 miles (14 km)
Ceiling: 6000 feet AGL
Clouds: few clouds at 2400 feet AGL
broken clouds at 6000 feet AGL
Weather: automated observation with no human augmentation;
there may or may not be significant weather present at this time

METAR text: PACD 182353Z 28015KT 10SM SCT049 03/M02 A2970 RMK AO2 SLP059 60016 T00281017 10033 20006 55001
Conditions at: PACD (COLD BAY , AK, US) observed 2353 UTC 18 April 2019
Temperature: 2.8°C (37°F)
Dewpoint: -1.7°C (29°F) [RH = 72%]
Pressure (altimeter): 29.70 inches Hg (1005.8 mb)
[Sea-level pressure: 1005.9 mb]
Winds: from the W (280 degrees) at 17 MPH (15 knots; 7.7 m/s)
Visibility: 10 or more miles (16+ km)
Ceiling: at least 12,000 feet AGL
Clouds: scattered clouds at 4900 feet AGL
Weather: no significant weather observed at this time

METAR text: PACD 182253Z 25012KT 10SM CLR 03/M02 A2970 RMK AO2 SNE15 SLP057 P0000 T00281017
Conditions at: PACD (COLD BAY , AK, US) observed 2253 UTC 18 April 2019
Temperature: 2.8°C (37°F)
Dewpoint: -1.7°C (29°F) [RH = 72%]
Pressure (altimeter): 29.70 inches Hg (1005.8 mb)
[Sea-level pressure: 1005.7 mb]
Winds: from the WSW (250 degrees) at 14 MPH (12 knots; 6.2 m/s)
Visibility: 10 or more miles (16+ km)
Ceiling: at least 12,000 feet AGL
Clouds: sky clear below 12,000 feet AGL
Weather: no significant weather observed at this time

METAR text: PACD 182222Z 24009KT 10SM FEW029 SCT050 BKN090 02/M01 A2970 RMK AO2 SNE15 P0000 T00221011
Conditions at: PACD (COLD BAY , AK, US) observed 2222 UTC 18 April 2019
Temperature: 2.2°C (36°F)
Dewpoint: -1.1°C (30°F) [RH = 79%]
Pressure (altimeter): 29.70 inches Hg (1005.8 mb)
Winds: from the WSW (240 degrees) at 10 MPH (9 knots; 4.6 m/s)
Visibility: 10 or more miles (16+ km)
Ceiling: 9000 feet AGL
Clouds: few clouds at 2900 feet AGL
scattered clouds at 5000 feet AGL
broken clouds at 9000 feet AGL
Weather: no significant weather observed at this time

METAR text: PACD 182205Z 25013KT 3SM -SN BR BKN018 BKN038 OVC049 01/M01 A2971 RMK AO2 P0000 T00061011
Conditions at: PACD (COLD BAY , AK, US) observed 2205 UTC 18 April 2019
Temperature: 0.6°C (33°F)
Dewpoint: -1.1°C (30°F) [RH = 88%]
Pressure (altimeter): 29.71 inches Hg (1006.2 mb)
Winds: from the WSW (250 degrees) at 15 MPH (13 knots; 6.7 m/s)
Visibility: 3 miles ( 5 km)
Ceiling: 1800 feet AGL
Clouds: broken clouds at 1800 feet AGL
broken clouds at 3800 feet AGL
overcast cloud deck at 4900 feet AGL
Weather: -SN BR  (light snow, mist)

METAR text: PACD 182200Z 23014KT 1 1/4SM -SN BR BKN016 BKN038 OVC049 01/M01 A2971 RMK AO2 P0000 T00061006
Conditions at: PACD (COLD BAY , AK, US) observed 2200 UTC 18 April 2019
Temperature: 0.6°C (33°F)
Dewpoint: -0.6°C (31°F) [RH = 92%]
Pressure (altimeter): 29.71 inches Hg (1006.2 mb)
Winds: from the SW (230 degrees) at 16 MPH (14 knots; 7.2 m/s)
Visibility: 1.25 miles (2.01 km)
Ceiling: 1600 feet AGL
Clouds: broken clouds at 1600 feet AGL
broken clouds at 3800 feet AGL
overcast cloud deck at 4900 feet AGL
Weather: -SN BR  (light snow, mist)

METAR text: PACD 182153Z 24014KT 1/2SM SN FG BKN011 OVC070 01/M01 A2971 RMK AO2 UPB07E13SNB37 SLP061 P0001 T00061011
Conditions at: PACD (COLD BAY , AK, US) observed 2153 UTC 18 April 2019
Temperature: 0.6°C (33°F)
Dewpoint: -1.1°C (30°F) [RH = 88%]
Pressure (altimeter): 29.71 inches Hg (1006.2 mb)
[Sea-level pressure: 1006.1 mb]
Winds: from the WSW (240 degrees) at 16 MPH (14 knots; 7.2 m/s)
Visibility: 0.50 miles (0.80 km)
Ceiling: 1100 feet AGL
Clouds: broken clouds at 1100 feet AGL
overcast cloud deck at 7000 feet AGL
Weather: SN FG  (moderate snow, fog)

METAR text: PACD 182147Z 25016KT 3/4SM -SN BR BKN015 BKN070 BKN090 01/M01 A2971 RMK AO2 UPB07E13SNB37 P0000
Conditions at: PACD (COLD BAY , AK, US) observed 2147 UTC 18 April 2019
Temperature: 1.0°C (34°F)
Dewpoint: -1.0°C (30°F) [RH = 86%]
Pressure (altimeter): 29.71 inches Hg (1006.2 mb)
Winds: from the WSW (250 degrees) at 18 MPH (16 knots; 8.2 m/s)
Visibility: 0.75 miles (1.21 km)
Ceiling: 1500 feet AGL
Clouds: broken clouds at 1500 feet AGL
broken clouds at 7000 feet AGL
broken clouds at 9000 feet AGL
Weather: -SN BR  (light snow, mist)

METAR text: PACD 182142Z 26015KT 2 1/2SM -SN BR BKN023 BKN070 BKN090 01/M01 A2971 RMK AO2 UPB07E13SNB37 P0000 T00111011
Conditions at: PACD (COLD BAY , AK, US) observed 2142 UTC 18 April 2019
Temperature: 1.1°C (34°F)
Dewpoint: -1.1°C (30°F) [RH = 85%]
Pressure (altimeter): 29.71 inches Hg (1006.2 mb)
Winds: from the W (260 degrees) at 17 MPH (15 knots; 7.7 m/s)
Visibility: 2.50 miles (4.02 km)
Ceiling: 2300 feet AGL
Clouds: broken clouds at 2300 feet AGL
broken clouds at 7000 feet AGL
broken clouds at 9000 feet AGL
Weather: -SN BR  (light snow, mist)

METAR text: PACD 182053Z 24010KT 10SM CLR 02/M01 A2970 RMK AO2 SNE16 SLP060 P0000 60015 T00221011 50001
Conditions at: PACD (COLD BAY , AK, US) observed 2053 UTC 18 April 2019
Temperature: 2.2°C (36°F)
Dewpoint: -1.1°C (30°F) [RH = 79%]
Pressure (altimeter): 29.70 inches Hg (1005.8 mb)
[Sea-level pressure: 1006.0 mb]
Winds: from the WSW (240 degrees) at 12 MPH (10 knots; 5.1 m/s)
Visibility: 10 or more miles (16+ km)
Ceiling: at least 12,000 feet AGL
Clouds: sky clear below 12,000 feet AGL
Weather: no significant weather observed at this time

METAR text: PACD 182010Z 25008KT 6SM -SN BR SCT005 BKN030 OVC034 01/M01 A2971 RMK AO2 P0000 T00061006
Conditions at: PACD (COLD BAY , AK, US) observed 2010 UTC 18 April 2019
Temperature: 0.6°C (33°F)
Dewpoint: -0.6°C (31°F) [RH = 92%]
Pressure (altimeter): 29.71 inches Hg (1006.2 mb)
Winds: from the WSW (250 degrees) at 9 MPH (8 knots; 4.1 m/s)
Visibility: 6 miles (10 km)
Ceiling: 3000 feet AGL
Clouds: scattered clouds at 500 feet AGL
broken clouds at 3000 feet AGL
overcast cloud deck at 3400 feet AGL
Weather: -SN BR  (light snow, mist)

METAR text: PACD 181955Z 26008KT 3SM -SN BR FEW004 BKN009 OVC013 01/00 A2971 RMK AO2 P0000 T00110000
Conditions at: PACD (COLD BAY , AK, US) observed 1955 UTC 18 April 2019
Temperature: 1.1°C (34°F)
Dewpoint: 0.0°C (32°F) [RH = 92%]
Pressure (altimeter): 29.71 inches Hg (1006.2 mb)
Winds: from the W (260 degrees) at 9 MPH (8 knots; 4.1 m/s)
Visibility: 3 miles ( 5 km)
Ceiling: 900 feet AGL
Clouds: few clouds at 400 feet AGL
broken clouds at 900 feet AGL
overcast cloud deck at 1300 feet AGL
Weather: -SN BR  (light snow, mist)

METAR text: PACD 181953Z 25008KT 3/4SM -SN BR FEW004 BKN009 OVC036 01/00 A2971 RMK AO2 SLP062 P0006 T00060000
Conditions at: PACD (COLD BAY , AK, US) observed 1953 UTC 18 April 2019
Temperature: 0.6°C (33°F)
Dewpoint: 0.0°C (32°F) [RH = 96%]
Pressure (altimeter): 29.71 inches Hg (1006.2 mb)
[Sea-level pressure: 1006.2 mb]
Winds: from the WSW (250 degrees) at 9 MPH (8 knots; 4.1 m/s)
Visibility: 0.75 miles (1.21 km)
Ceiling: 900 feet AGL
Clouds: few clouds at 400 feet AGL
broken clouds at 900 feet AGL
overcast cloud deck at 3600 feet AGL
Weather: -SN BR  (light snow, mist)

METAR text: PACD 181941Z 25009KT 3/4SM -SN BR FEW003 OVC009 01/M01 A2971 RMK AO2 P0006 T00061006
Conditions at: PACD (COLD BAY , AK, US) observed 1941 UTC 18 April 2019
Temperature: 0.6°C (33°F)
Dewpoint: -0.6°C (31°F) [RH = 92%]
Pressure (altimeter): 29.71 inches Hg (1006.2 mb)
Winds: from the WSW (250 degrees) at 10 MPH (9 knots; 4.6 m/s)
Visibility: 0.75 miles (1.21 km)
Ceiling: 900 feet AGL
Clouds: few clouds at 300 feet AGL
overcast cloud deck at 900 feet AGL
Weather: -SN BR  (light snow, mist)

METAR text: PACD 181934Z 26011KT 3/4SM -SN BR VV010 01/M01 A2971 RMK AO2 P0005 T00061011
Conditions at: PACD (COLD BAY , AK, US) observed 1934 UTC 18 April 2019
Temperature: 0.6°C (33°F)
Dewpoint: -1.1°C (30°F) [RH = 88%]
Pressure (altimeter): 29.71 inches Hg (1006.2 mb)
Winds: from the W (260 degrees) at 13 MPH (11 knots; 5.7 m/s)
Visibility: 0.75 miles (1.21 km)
Ceiling: indefinite ceiling with vertical visibility of 1000 feet AGL
Clouds: obscured sky
Weather: -SN BR  (light snow, mist)

METAR text: PACD 181909Z 25009KT 1SM -SN BR VV012 01/M01 A2971 RMK AO2 P0003 T00061006
Conditions at: PACD (COLD BAY , AK, US) observed 1909 UTC 18 April 2019
Temperature: 0.6°C (33°F)
Dewpoint: -0.6°C (31°F) [RH = 92%]
Pressure (altimeter): 29.71 inches Hg (1006.2 mb)
Winds: from the WSW (250 degrees) at 10 MPH (9 knots; 4.6 m/s)
Visibility: 1.00 miles (1.61 km)
Ceiling: indefinite ceiling with vertical visibility of 1200 feet AGL
Clouds: obscured sky
Weather: -SN BR  (light snow, mist)

METAR text: PACD 181853Z 24012KT 3/4SM -SN BR FEW004 OVC008 01/M01 A2970 RMK AO2 SLP060 P0009 T00061006
Conditions at: PACD (COLD BAY , AK, US) observed 1853 UTC 18 April 2019
Temperature: 0.6°C (33°F)
Dewpoint: -0.6°C (31°F) [RH = 92%]
Pressure (altimeter): 29.70 inches Hg (1005.8 mb)
[Sea-level pressure: 1006.0 mb]
Winds: from the WSW (240 degrees) at 14 MPH (12 knots; 6.2 m/s)
Visibility: 0.75 miles (1.21 km)
Ceiling: 800 feet AGL
Clouds: few clouds at 400 feet AGL
overcast cloud deck at 800 feet AGL
Weather: -SN BR  (light snow, mist)

METAR text: PACD 181828Z 25005KT 3/4SM -SN BR VV008 01/M01 A2970 RMK AO2 P0006 T00061006
Conditions at: PACD (COLD BAY , AK, US) observed 1828 UTC 18 April 2019
Temperature: 0.6°C (33°F)
Dewpoint: -0.6°C (31°F) [RH = 92%]
Pressure (altimeter): 29.70 inches Hg (1005.8 mb)
Winds: from the WSW (250 degrees) at 6 MPH (5 knots; 2.6 m/s)
Visibility: 0.75 miles (1.21 km)
Ceiling: indefinite ceiling with vertical visibility of 800 feet AGL
Clouds: obscured sky
Weather: -SN BR  (light snow, mist)

METAR text: PACD 181812Z 30009KT 1SM -SN BR BKN012 OVC035 01/M01 A2970 RMK AO2 P0002 T00061006
Conditions at: PACD (COLD BAY , AK, US) observed 1812 UTC 18 April 2019
Temperature: 0.6°C (33°F)
Dewpoint: -0.6°C (31°F) [RH = 92%]
Pressure (altimeter): 29.70 inches Hg (1005.8 mb)
Winds: from the WNW (300 degrees) at 10 MPH (9 knots; 4.6 m/s)
Visibility: 1.00 miles (1.61 km)
Ceiling: 1200 feet AGL
Clouds: broken clouds at 1200 feet AGL
overcast cloud deck at 3500 feet AGL
Weather: -SN BR  (light snow, mist)

METAR text: PACD 181802Z 27012KT 3/4SM -SN BR FEW005 BKN021 OVC048 01/M01 A2970 RMK AO2 P0000 T00061011
Conditions at: PACD (COLD BAY , AK, US) observed 1802 UTC 18 April 2019
Temperature: 0.6°C (33°F)
Dewpoint: -1.1°C (30°F) [RH = 88%]
Pressure (altimeter): 29.70 inches Hg (1005.8 mb)
Winds: from the W (270 degrees) at 14 MPH (12 knots; 6.2 m/s)
Visibility: 0.75 miles (1.21 km)
Ceiling: 2100 feet AGL
Clouds: few clouds at 500 feet AGL
broken clouds at 2100 feet AGL
overcast cloud deck at 4800 feet AGL
Weather: -SN BR  (light snow, mist)

METAR text: PACD 181758Z 25012KT 2SM -SN BR FEW007 BKN027 OVC050 01/M01 A2970 RMK AO2 P0000 T00111011
Conditions at: PACD (COLD BAY , AK, US) observed 1758 UTC 18 April 2019
Temperature: 1.1°C (34°F)
Dewpoint: -1.1°C (30°F) [RH = 85%]
Pressure (altimeter): 29.70 inches Hg (1005.8 mb)
Winds: from the WSW (250 degrees) at 14 MPH (12 knots; 6.2 m/s)
Visibility: 2.00 miles (3.22 km)
Ceiling: 2700 feet AGL
Clouds: few clouds at 700 feet AGL
broken clouds at 2700 feet AGL
overcast cloud deck at 5000 feet AGL
Weather: -SN BR  (light snow, mist)

METAR text: PACD 181753Z 24011KT 4SM -SN BR FEW033 BKN041 OVC050 01/M01 A2970 RMK AO2 SNE32B43 SLP059 P0000 60011 T00111011 10011 21006 55000
Conditions at: PACD (COLD BAY , AK, US) observed 1753 UTC 18 April 2019
Temperature: 1.1°C (34°F)
Dewpoint: -1.1°C (30°F) [RH = 85%]
Pressure (altimeter): 29.70 inches Hg (1005.8 mb)
[Sea-level pressure: 1005.9 mb]
Winds: from the WSW (240 degrees) at 13 MPH (11 knots; 5.7 m/s)
Visibility: 4 miles ( 6 km)
Ceiling: 4100 feet AGL
Clouds: few clouds at 3300 feet AGL
broken clouds at 4100 feet AGL
overcast cloud deck at 5000 feet AGL
Weather: -SN BR  (light snow, mist)

METAR text: PACD 181735Z 24009KT 9SM BKN035 BKN050 OVC060 01/M01 A2970 RMK AO2 SNE32 P0000 T00111006
Conditions at: PACD (COLD BAY , AK, US) observed 1735 UTC 18 April 2019
Temperature: 1.1°C (34°F)
Dewpoint: -0.6°C (31°F) [RH = 88%]
Pressure (altimeter): 29.70 inches Hg (1005.8 mb)
Winds: from the WSW (240 degrees) at 10 MPH (9 knots; 4.6 m/s)
Visibility: 9 miles (14 km)
Ceiling: 3500 feet AGL
Clouds: broken clouds at 3500 feet AGL
broken clouds at 5000 feet AGL
overcast cloud deck at 6000 feet AGL
Weather: no significant weather observed at this time

METAR text: PACD 181707Z 24006KT 3SM -SN BR BKN027 OVC050 00/M01 A2970 RMK AO2 P0000 T00001006
Conditions at: PACD (COLD BAY , AK, US) observed 1707 UTC 18 April 2019
Temperature: 0.0°C (32°F)
Dewpoint: -0.6°C (31°F) [RH = 96%]
Pressure (altimeter): 29.70 inches Hg (1005.8 mb)
Winds: from the WSW (240 degrees) at 7 MPH (6 knots; 3.1 m/s)
Visibility: 3 miles ( 5 km)
Ceiling: 2700 feet AGL
Clouds: broken clouds at 2700 feet AGL
overcast cloud deck at 5000 feet AGL
Weather: -SN BR  (light snow, mist)

METAR text: PACD 181700Z 25007KT 2 1/2SM -SN BR FEW018 OVC025 01/M01 A2970 RMK AO2 P0000 T00061006
Conditions at: PACD (COLD BAY , AK, US) observed 1700 UTC 18 April 2019
Temperature: 0.6°C (33°F)
Dewpoint: -0.6°C (31°F) [RH = 92%]
Pressure (altimeter): 29.70 inches Hg (1005.8 mb)
Winds: from the WSW (250 degrees) at 8 MPH (7 knots; 3.6 m/s)
Visibility: 2.50 miles (4.02 km)
Ceiling: 2500 feet AGL
Clouds: few clouds at 1800 feet AGL
overcast cloud deck at 2500 feet AGL
Weather: -SN BR  (light snow, mist)

METAR text: PACD 181653Z 26008KT 3/4SM -SN BR VV018 01/M01 A2970 RMK AO2 SLP057 P0004 T00061006
Conditions at: PACD (COLD BAY , AK, US) observed 1653 UTC 18 April 2019
Temperature: 0.6°C (33°F)
Dewpoint: -0.6°C (31°F) [RH = 92%]
Pressure (altimeter): 29.70 inches Hg (1005.8 mb)
[Sea-level pressure: 1005.7 mb]
Winds: from the W (260 degrees) at 9 MPH (8 knots; 4.1 m/s)
Visibility: 0.75 miles (1.21 km)
Ceiling: indefinite ceiling with vertical visibility of 1800 feet AGL
Clouds: obscured sky
Weather: -SN BR  (light snow, mist)

METAR text: PACD 181651Z 26008KT 3/4SM -SN BR BKN015 OVC020 01/M01 A2970 RMK AO2 P0004
Conditions at: PACD (COLD BAY , AK, US) observed 1651 UTC 18 April 2019
Temperature: 1.0°C (34°F)
Dewpoint: -1.0°C (30°F) [RH = 86%]
Pressure (altimeter): 29.70 inches Hg (1005.8 mb)
Winds: from the W (260 degrees) at 9 MPH (8 knots; 4.1 m/s)
Visibility: 0.75 miles (1.21 km)
Ceiling: 1500 feet AGL
Clouds: broken clouds at 1500 feet AGL
overcast cloud deck at 2000 feet AGL
Weather: -SN BR  (light snow, mist)

METAR text: PACD 181645Z 25007KT 2 1/2SM -SN BR FEW013 OVC019 00/M01 A2970 RMK AO2 P0003 T00001006
Conditions at: PACD (COLD BAY , AK, US) observed 1645 UTC 18 April 2019
Temperature: 0.0°C (32°F)
Dewpoint: -0.6°C (31°F) [RH = 96%]
Pressure (altimeter): 29.70 inches Hg (1005.8 mb)
Winds: from the WSW (250 degrees) at 8 MPH (7 knots; 3.6 m/s)
Visibility: 2.50 miles (4.02 km)
Ceiling: 1900 feet AGL
Clouds: few clouds at 1300 feet AGL
overcast cloud deck at 1900 feet AGL
Weather: -SN BR  (light snow, mist)

METAR text: PACD 181637Z 24007KT 3SM -SN BR BKN014 OVC022 01/M01 A2970 RMK AO2 P0003 T00061006
Conditions at: PACD (COLD BAY , AK, US) observed 1637 UTC 18 April 2019
Temperature: 0.6°C (33°F)
Dewpoint: -0.6°C (31°F) [RH = 92%]
Pressure (altimeter): 29.70 inches Hg (1005.8 mb)
Winds: from the WSW (240 degrees) at 8 MPH (7 knots; 3.6 m/s)
Visibility: 3 miles ( 5 km)
Ceiling: 1400 feet AGL
Clouds: broken clouds at 1400 feet AGL
overcast cloud deck at 2200 feet AGL
Weather: -SN BR  (light snow, mist)

METAR text: PACD 181628Z 25008KT 1SM -SN BR BKN010 OVC014 01/M01 A2970 RMK AO2 P0003 T00061006
Conditions at: PACD (COLD BAY , AK, US) observed 1628 UTC 18 April 2019
Temperature: 0.6°C (33°F)
Dewpoint: -0.6°C (31°F) [RH = 92%]
Pressure (altimeter): 29.70 inches Hg (1005.8 mb)
Winds: from the WSW (250 degrees) at 9 MPH (8 knots; 4.1 m/s)
Visibility: 1.00 miles (1.61 km)
Ceiling: 1000 feet AGL
Clouds: broken clouds at 1000 feet AGL
overcast cloud deck at 1400 feet AGL
Weather: -SN BR  (light snow, mist)

METAR text: PACD 181625Z 25008KT 3/4SM -SN BR BKN008 OVC014 01/M01 A2970 RMK AO2 P0003 T00061006
Conditions at: PACD (COLD BAY , AK, US) observed 1625 UTC 18 April 2019
Temperature: 0.6°C (33°F)
Dewpoint: -0.6°C (31°F) [RH = 92%]
Pressure (altimeter): 29.70 inches Hg (1005.8 mb)
Winds: from the WSW (250 degrees) at 9 MPH (8 knots; 4.1 m/s)
Visibility: 0.75 miles (1.21 km)
Ceiling: 800 feet AGL
Clouds: broken clouds at 800 feet AGL
overcast cloud deck at 1400 feet AGL
Weather: -SN BR  (light snow, mist)

METAR text: PACD 181615Z 24013KT 1/4SM +SN FG BKN006 OVC014 00/M01 A2970 RMK AO2 P0001 T00001011
Conditions at: PACD (COLD BAY , AK, US) observed 1615 UTC 18 April 2019
Temperature: 0.0°C (32°F)
Dewpoint: -1.1°C (30°F) [RH = 92%]
Pressure (altimeter): 29.70 inches Hg (1005.8 mb)
Winds: from the WSW (240 degrees) at 15 MPH (13 knots; 6.7 m/s)
Visibility: 0.25 miles (0.40 km)
Ceiling: 600 feet AGL
Clouds: broken clouds at 600 feet AGL
overcast cloud deck at 1400 feet AGL
Weather: +SN FG  (heavy snow, fog)

METAR text: PACD 181608Z 24014G18KT 1SM -SN BR BKN006 OVC014 01/M01 A2970 RMK AO2 P0001 T00061011
Conditions at: PACD (COLD BAY , AK, US) observed 1608 UTC 18 April 2019
Temperature: 0.6°C (33°F)
Dewpoint: -1.1°C (30°F) [RH = 88%]
Pressure (altimeter): 29.70 inches Hg (1005.8 mb)
Winds: from the WSW (240 degrees) at 16 MPH (14 knots; 7.2 m/s)
gusting to 21 MPH (18 knots; 9.3 m/s)
Visibility: 1.00 miles (1.61 km)
Ceiling: 600 feet AGL
Clouds: broken clouds at 600 feet AGL
overcast cloud deck at 1400 feet AGL
Weather: -SN BR  (light snow, mist)

METAR text: PACD 181606Z 24010KT 2 1/2SM -SN BR SCT006 OVC014 00/M01 A2969 RMK AO2 P0001 T00001006
Conditions at: PACD (COLD BAY , AK, US) observed 1606 UTC 18 April 2019
Temperature: 0.0°C (32°F)
Dewpoint: -0.6°C (31°F) [RH = 96%]
Pressure (altimeter): 29.69 inches Hg (1005.5 mb)
Winds: from the WSW (240 degrees) at 12 MPH (10 knots; 5.1 m/s)
Visibility: 2.50 miles (4.02 km)
Ceiling: 1400 feet AGL
Clouds: scattered clouds at 600 feet AGL
overcast cloud deck at 1400 feet AGL
Weather: -SN BR  (light snow, mist)

METAR text: PACD 181553Z 24004KT 4SM -SN BR SCT007 OVC012 00/M01 A2970 RMK AO2 SLP058 P0004 T00001006
Conditions at: PACD (COLD BAY , AK, US) observed 1553 UTC 18 April 2019
Temperature: 0.0°C (32°F)
Dewpoint: -0.6°C (31°F) [RH = 96%]
Pressure (altimeter): 29.70 inches Hg (1005.8 mb)
[Sea-level pressure: 1005.8 mb]
Winds: from the WSW (240 degrees) at 5 MPH (4 knots; 2.1 m/s)
Visibility: 4 miles ( 6 km)
Ceiling: 1200 feet AGL
Clouds: scattered clouds at 700 feet AGL
overcast cloud deck at 1200 feet AGL
Weather: -SN BR  (light snow, mist)

METAR text: PACD 181546Z 25005KT 2 1/2SM -SN BR BKN009 OVC012 00/M01 A2970 RMK AO2 P0004 T00001011
Conditions at: PACD (COLD BAY , AK, US) observed 1546 UTC 18 April 2019
Temperature: 0.0°C (32°F)
Dewpoint: -1.1°C (30°F) [RH = 92%]
Pressure (altimeter): 29.70 inches Hg (1005.8 mb)
Winds: from the WSW (250 degrees) at 6 MPH (5 knots; 2.6 m/s)
Visibility: 2.50 miles (4.02 km)
Ceiling: 900 feet AGL
Clouds: broken clouds at 900 feet AGL
overcast cloud deck at 1200 feet AGL
Weather: -SN BR  (light snow, mist)

METAR text: PACD 181535Z AUTO 26007KT 1SM -SN BR FEW006 OVC012 00/M01 A2970 RMK AO2 P0004 T00001011 TSNO
Conditions at: PACD (COLD BAY , AK, US) observed 1535 UTC 18 April 2019
Temperature: 0.0°C (32°F)
Dewpoint: -1.1°C (30°F) [RH = 92%]
Pressure (altimeter): 29.70 inches Hg (1005.8 mb)
Winds: from the W (260 degrees) at 8 MPH (7 knots; 3.6 m/s)
Visibility: 1.00 miles (1.61 km)
Ceiling: 1200 feet AGL
Clouds: few clouds at 600 feet AGL
overcast cloud deck at 1200 feet AGL
Weather: -SN BR  (light snow, mist)

METAR text: PACD 181530Z AUTO 27007KT 3/4SM -SN BR VV009 00/M01 A2970 RMK AO2 P0004 T00001011 TSNO
Conditions at: PACD (COLD BAY , AK, US) observed 1530 UTC 18 April 2019
Temperature: 0.0°C (32°F)
Dewpoint: -1.1°C (30°F) [RH = 92%]
Pressure (altimeter): 29.70 inches Hg (1005.8 mb)
Winds: from the W (270 degrees) at 8 MPH (7 knots; 3.6 m/s)
Visibility: 0.75 miles (1.21 km)
Ceiling: indefinite ceiling with vertical visibility of 900 feet AGL
Clouds: obscured sky
Weather: -SN BR  (light snow, mist)

METAR text: PACD 181523Z AUTO 28011G16KT 1SM -SN BR VV008 00/M01 A2970 RMK AO2 P0002 T00001011 TSNO
Conditions at: PACD (COLD BAY , AK, US) observed 1523 UTC 18 April 2019
Temperature: 0.0°C (32°F)
Dewpoint: -1.1°C (30°F) [RH = 92%]
Pressure (altimeter): 29.70 inches Hg (1005.8 mb)
Winds: from the W (280 degrees) at 13 MPH (11 knots; 5.7 m/s)
gusting to 18 MPH (16 knots; 8.2 m/s)
Visibility: 1.00 miles (1.61 km)
Ceiling: indefinite ceiling with vertical visibility of 800 feet AGL
Clouds: obscured sky
Weather: -SN BR  (light snow, mist)

METAR text: PACD 181518Z AUTO 25014KT 2 1/2SM -SN BR FEW006 OVC013 01/M01 A2969 RMK AO2 P0001 T00061006 TSNO
Conditions at: PACD (COLD BAY , AK, US) observed 1518 UTC 18 April 2019
Temperature: 0.6°C (33°F)
Dewpoint: -0.6°C (31°F) [RH = 92%]
Pressure (altimeter): 29.69 inches Hg (1005.5 mb)
Winds: from the WSW (250 degrees) at 16 MPH (14 knots; 7.2 m/s)
Visibility: 2.50 miles (4.02 km)
Ceiling: 1300 feet AGL
Clouds: few clouds at 600 feet AGL
overcast cloud deck at 1300 feet AGL
Weather: -SN BR  (light snow, mist)

METAR text: PACD 181511Z AUTO 24008KT 3SM -SN BR OVC013 01/M01 A2970 RMK AO2 P0001 T00061006 TSNO
Conditions at: PACD (COLD BAY , AK, US) observed 1511 UTC 18 April 2019
Temperature: 0.6°C (33°F)
Dewpoint: -0.6°C (31°F) [RH = 92%]
Pressure (altimeter): 29.70 inches Hg (1005.8 mb)
Winds: from the WSW (240 degrees) at 9 MPH (8 knots; 4.1 m/s)
Visibility: 3 miles ( 5 km)
Ceiling: 1300 feet AGL
Clouds: overcast cloud deck at 1300 feet AGL
Weather: -SN BR  (light snow, mist)

METAR text: PACD 181453Z AUTO 25011KT 1 1/4SM -SN BR FEW006 BKN013 OVC025 01/M01 A2970 RMK AO2 SLP059 P0002 60003 T00061011 58006 TSNO
Conditions at: PACD (COLD BAY , AK, US) observed 1453 UTC 18 April 2019
Temperature: 0.6°C (33°F)
Dewpoint: -1.1°C (30°F) [RH = 88%]
Pressure (altimeter): 29.70 inches Hg (1005.8 mb)
[Sea-level pressure: 1005.9 mb]
Winds: from the WSW (250 degrees) at 13 MPH (11 knots; 5.7 m/s)
Visibility: 1.25 miles (2.01 km)
Ceiling: 1300 feet AGL
Clouds: few clouds at 600 feet AGL
broken clouds at 1300 feet AGL
overcast cloud deck at 2500 feet AGL
Weather: -SN BR  (light snow, mist)

METAR text: PACD 181444Z AUTO 24012KT 1 3/4SM -SN BR BKN015 BKN024 OVC037 01/M01 A2970 RMK AO2 P0000 T00061011 TSNO
Conditions at: PACD (COLD BAY , AK, US) observed 1444 UTC 18 April 2019
Temperature: 0.6°C (33°F)
Dewpoint: -1.1°C (30°F) [RH = 88%]
Pressure (altimeter): 29.70 inches Hg (1005.8 mb)
Winds: from the WSW (240 degrees) at 14 MPH (12 knots; 6.2 m/s)
Visibility: 1.75 miles (2.82 km)
Ceiling: 1500 feet AGL
Clouds: broken clouds at 1500 feet AGL
broken clouds at 2400 feet AGL
overcast cloud deck at 3700 feet AGL
Weather: -SN BR  (light snow, mist)

METAR text: PACD 181353Z AUTO 24008KT 4SM -SN BR FEW009 SCT017 OVC023 01/M01 A2971 RMK AO2 UPB00E02SNB03 SLP061 P0000 T00061006 TSNO
Conditions at: PACD (COLD BAY , AK, US) observed 1353 UTC 18 April 2019
Temperature: 0.6°C (33°F)
Dewpoint: -0.6°C (31°F) [RH = 92%]
Pressure (altimeter): 29.71 inches Hg (1006.2 mb)
[Sea-level pressure: 1006.1 mb]
Winds: from the WSW (240 degrees) at 9 MPH (8 knots; 4.1 m/s)
Visibility: 4 miles ( 6 km)
Ceiling: 2300 feet AGL
Clouds: few clouds at 900 feet AGL
scattered clouds at 1700 feet AGL
overcast cloud deck at 2300 feet AGL
Weather: -SN BR  (light snow, mist)

METAR text: PACD 181330Z AUTO 25006KT 7SM -SN SCT010 BKN025 OVC037 01/M01 A2971 RMK AO2 UPB00E02SNB03 P0000 T00061006 TSNO
Conditions at: PACD (COLD BAY , AK, US) observed 1330 UTC 18 April 2019
Temperature: 0.6°C (33°F)
Dewpoint: -0.6°C (31°F) [RH = 92%]
Pressure (altimeter): 29.71 inches Hg (1006.2 mb)
Winds: from the WSW (250 degrees) at 7 MPH (6 knots; 3.1 m/s)
Visibility: 7 miles (11 km)
Ceiling: 2500 feet AGL
Clouds: scattered clouds at 1000 feet AGL
broken clouds at 2500 feet AGL
overcast cloud deck at 3700 feet AGL
Weather: -SN  (light snow)

METAR text: PACD 181309Z AUTO 26006KT 8SM -SN BKN010 BKN015 OVC039 01/M01 A2972 RMK AO2 UPB00E02SNB03 CIG 007V012 P0000 T00061006 TSNO
Conditions at: PACD (COLD BAY , AK, US) observed 1309 UTC 18 April 2019
Temperature: 0.6°C (33°F)
Dewpoint: -0.6°C (31°F) [RH = 92%]
Pressure (altimeter): 29.72 inches Hg (1006.5 mb)
Winds: from the W (260 degrees) at 7 MPH (6 knots; 3.1 m/s)
Visibility: 8 miles (13 km)
Ceiling: 1000 feet AGL
Clouds: broken clouds at 1000 feet AGL
broken clouds at 1500 feet AGL
overcast cloud deck at 3900 feet AGL
Weather: -SN  (light snow)

METAR text: PACD 181253Z AUTO 25008KT 10SM SCT009 BKN017 OVC039 01/M01 A2971 RMK AO2 UPB41E50SNE16 SLP063 P0001 T00061011 TSNO
Conditions at: PACD (COLD BAY , AK, US) observed 1253 UTC 18 April 2019
Temperature: 0.6°C (33°F)
Dewpoint: -1.1°C (30°F) [RH = 88%]
Pressure (altimeter): 29.71 inches Hg (1006.2 mb)
[Sea-level pressure: 1006.3 mb]
Winds: from the WSW (250 degrees) at 9 MPH (8 knots; 4.1 m/s)
Visibility: 10 or more miles (16+ km)
Ceiling: 1700 feet AGL
Clouds: scattered clouds at 900 feet AGL
broken clouds at 1700 feet AGL
overcast cloud deck at 3900 feet AGL
Weather: automated observation with no human augmentation;
there may or may not be significant weather present at this time

Forecast for: PACD (COLD BAY , AK, US)
Text: PACD 192339Z 2000/2024 30010KT P6SM VCSH SCT025 BKN035
Forecast period: 0000 to 0400 UTC 20 April 2019
Forecast type: FROM: standard forecast or significant change
Winds: from the WNW (300 degrees) at 12 MPH (10 knots; 5.1 m/s)
Visibility: 6 or more miles 10+ km)
Ceiling: 3500 feet AGL
Clouds: scattered clouds at 2500 feet AGL
broken clouds at 3500 feet AGL
Weather: VCSH  (showers in vicinity)
Text: TEMPO 2000/2004 5SM -SHRASN BR BKN025
Forecast period: 0000 to 0400 UTC 20 April 2019
Forecast type: TEMPORARY: The following changes expected for less than half the time period
Visibility: 5 miles (8 km)
Ceiling: 2500 feet AGL
Clouds: broken clouds at 2500 feet AGL
Weather: -SHRA -SHSN BR  (light rain showers, light snow showers, mist)
Text: FM200400 30009KT P6SM VCSH FEW025 BKN050
Forecast period: 0400 UTC 20 April 2019 to 0000 UTC 21 April 2019
Forecast type: FROM: standard forecast or significant change
Winds: from the WNW (300 degrees) at 10 MPH (9 knots; 4.6 m/s)
Visibility: 6 or more miles 10+ km)
Ceiling: 5000 feet AGL
Clouds: few clouds at 2500 feet AGL
broken clouds at 5000 feet AGL
Weather: VCSH  (showers in vicinity)